Time;durP1;ratioP1;P1;durP2;ratioP2;P2;SDS_P1;SDS_P2;PMS_P1;PMS_P2;Temp;Humidity;BMP_temperature;BMP_pressure;BME280_temperature;BME280_humidity;BME280_pressure;Samples;Min_cycle;Max_cycle;Signal;HPM_P1;HPM_P2
2021/07/10 00:00:45;;;;;;;6.70;5.87;;;13.30;99.90;;;;;;4913343;29;20165;-61
2021/07/10 00:03:10;;;;;;;5.37;4.90;;;13.30;99.90;;;;;;4906066;29;20204;-60
2021/07/10 00:05:36;;;;;;;4.97;4.60;;;13.30;99.90;;;;;;4912119;29;20189;-61
2021/07/10 00:08:02;;;;;;;7.37;6.70;;;13.20;99.90;;;;;;4913111;29;20645;-60
2021/07/10 00:10:28;;;;;;;5.63;5.13;;;13.20;99.90;;;;;;4913247;29;20176;-61
2021/07/10 00:12:54;;;;;;;7.77;4.47;;;13.10;99.90;;;;;;4912848;29;20239;-60
2021/07/10 00:15:21;;;;;;;5.60;5.20;;;13.10;99.90;;;;;;4912959;29;20468;-61
2021/07/10 00:17:49;;;;;;;5.30;4.90;;;13.00;99.90;;;;;;4912979;29;20634;-61
2021/07/10 00:20:15;;;;;;;5.50;5.00;;;13.00;99.90;;;;;;4913117;29;20404;-61
2021/07/10 00:22:41;;;;;;;6.43;5.60;;;12.90;99.90;;;;;;4912549;29;20437;-61
2021/07/10 00:25:08;;;;;;;5.30;4.83;;;12.90;99.90;;;;;;4913281;28;20871;-61
2021/07/10 00:27:35;;;;;;;5.60;5.10;;;12.80;99.90;;;;;;4912629;29;20425;-60
2021/07/10 00:30:02;;;;;;;7.10;5.43;;;12.70;99.90;;;;;;4912900;29;20416;-61
2021/07/10 00:32:27;;;;;;;6.27;4.70;;;12.70;99.90;;;;;;4912441;29;20436;-60
2021/07/10 00:34:53;;;;;;;9.80;5.10;;;12.70;99.90;;;;;;4912457;29;20968;-61
2021/07/10 00:37:18;;;;;;;6.33;5.13;;;12.70;99.90;;;;;;4912913;29;20705;-61
2021/07/10 00:39:44;;;;;;;5.40;5.00;;;12.60;99.90;;;;;;4912835;29;20183;-61
2021/07/10 00:42:10;;;;;;;5.37;4.87;;;12.60;99.90;;;;;;4912729;29;20169;-60
2021/07/10 00:44:35;;;;;;;5.10;4.70;;;12.50;99.90;;;;;;4912362;29;20196;-61
2021/07/10 00:47:01;;;;;;;6.37;5.50;;;12.50;99.90;;;;;;4913012;29;20172;-61
2021/07/10 00:49:26;;;;;;;4.77;4.27;;;12.50;99.90;;;;;;4912860;29;20185;-61
2021/07/10 00:51:52;;;;;;;4.83;4.50;;;12.50;99.90;;;;;;4912692;29;20177;-59
2021/07/10 00:54:17;;;;;;;5.83;5.40;;;12.50;99.90;;;;;;4912211;29;20236;-60
2021/07/10 00:56:45;;;;;;;6.03;5.50;;;12.40;99.90;;;;;;4912653;29;20391;-61
2021/07/10 00:59:13;;;;;;;5.70;4.60;;;12.30;99.90;;;;;;4912629;29;20645;-60
2021/07/10 01:01:39;;;;;;;5.60;4.60;;;12.30;99.90;;;;;;4912416;29;20422;-60
2021/07/10 01:04:04;;;;;;;4.30;3.70;;;12.30;99.90;;;;;;4911956;29;20602;-59
2021/07/10 01:06:30;;;;;;;5.20;4.37;;;12.20;99.90;;;;;;4912635;29;20417;-61
2021/07/10 01:08:56;;;;;;;6.43;5.70;;;12.20;99.90;;;;;;4912212;29;20199;-61
2021/07/10 01:11:22;;;;;;;5.63;4.90;;;12.20;99.90;;;;;;4912517;29;20189;-60
2021/07/10 01:13:48;;;;;;;4.40;4.10;;;12.10;99.90;;;;;;4912289;28;20251;-58
2021/07/10 01:16:13;;;;;;;5.60;4.93;;;12.10;99.90;;;;;;4916395;29;20173;-61
2021/07/10 01:18:39;;;;;;;4.67;4.37;;;12.00;99.90;;;;;;4915612;29;20432;-61
2021/07/10 01:21:04;;;;;;;7.43;4.10;;;12.00;99.90;;;;;;4916897;29;20226;-61
2021/07/10 01:23:30;;;;;;;5.00;4.60;;;12.00;99.90;;;;;;4916517;29;20262;-61
2021/07/10 01:25:56;;;;;;;4.80;4.50;;;11.90;99.90;;;;;;4916824;29;20259;-61
2021/07/10 01:28:21;;;;;;;4.70;4.40;;;11.90;99.90;;;;;;4917452;29;20179;-61
2021/07/10 01:30:48;;;;;;;4.70;4.23;;;11.90;99.90;;;;;;4917466;29;20177;-61
2021/07/10 01:33:15;;;;;;;5.10;4.60;;;11.80;99.90;;;;;;4916541;29;20444;-61
2021/07/10 01:35:41;;;;;;;3.90;3.70;;;11.90;99.90;;;;;;4916794;29;20462;-61
2021/07/10 01:38:09;;;;;;;5.47;4.93;;;11.90;99.90;;;;;;4917195;29;20455;-61
2021/07/10 01:40:36;;;;;;;4.93;4.57;;;11.80;99.90;;;;;;4908717;29;20424;-63
2021/07/10 01:43:03;;;;;;;5.20;4.80;;;11.70;99.90;;;;;;4898088;29;20437;-63
2021/07/10 01:45:30;;;;;;;4.60;4.20;;;11.60;99.90;;;;;;4903669;29;20424;-63
2021/07/10 01:47:56;;;;;;;4.57;4.17;;;11.60;99.90;;;;;;4917116;29;20426;-63
2021/07/10 01:50:22;;;;;;;4.83;4.40;;;11.60;99.90;;;;;;4916774;29;20799;-63
2021/07/10 01:52:48;;;;;;;4.90;4.50;;;11.60;99.90;;;;;;4916404;29;20196;-61
2021/07/10 01:55:15;;;;;;;5.57;5.17;;;11.60;99.90;;;;;;4916752;29;20476;-60
2021/07/10 01:57:43;;;;;;;5.40;5.00;;;11.60;99.90;;;;;;4917158;29;20181;-63
2021/07/10 02:00:20;;;;;;;6.10;4.70;;;11.60;99.90;;;;;;4917485;29;20409;-61
2021/07/10 02:02:46;;;;;;;4.80;4.40;;;11.50;99.90;;;;;;4916740;29;20419;-59
2021/07/10 02:05:12;;;;;;;6.57;5.97;;;11.50;99.90;;;;;;4917374;29;20913;-61
2021/07/10 02:07:38;;;;;;;10.13;6.50;;;11.50;99.90;;;;;;4917353;29;20421;-61
2021/07/10 02:10:09;;;;;;;6.47;5.87;;;11.60;99.90;;;;;;4916766;29;20448;-61
2021/07/10 02:12:36;;;;;;;6.40;5.80;;;11.50;99.90;;;;;;4917118;28;20431;-61
2021/07/10 02:15:04;;;;;;;5.27;4.57;;;11.40;99.90;;;;;;4920702;29;20858;-60
2021/07/10 02:17:30;;;;;;;5.53;4.37;;;11.40;99.90;;;;;;4919343;29;20503;-60
2021/07/10 02:19:55;;;;;;;8.10;5.70;;;11.40;99.90;;;;;;4918118;29;20448;-63
2021/07/10 02:22:21;;;;;;;5.30;4.90;;;11.40;99.90;;;;;;4916618;29;20180;-63
2021/07/10 02:24:46;;;;;;;5.63;5.13;;;11.40;99.90;;;;;;4915559;29;20217;-63
2021/07/10 02:27:12;;;;;;;5.47;5.00;;;11.40;99.90;;;;;;4916574;29;20188;-63
2021/07/10 02:29:38;;;;;;;7.00;6.03;;;11.30;99.90;;;;;;4916273;29;20539;-59
2021/07/10 02:32:04;;;;;;;5.20;4.70;;;11.30;99.90;;;;;;4915373;29;20204;-60
2021/07/10 02:34:29;;;;;;;5.83;5.00;;;11.30;99.90;;;;;;4916206;29;20217;-61
2021/07/10 02:36:55;;;;;;;4.80;4.40;;;11.40;99.90;;;;;;4916641;29;20811;-61
2021/07/10 02:39:21;;;;;;;5.00;4.63;;;11.40;99.90;;;;;;4916450;29;20184;-61
2021/07/10 02:41:46;;;;;;;5.47;4.97;;;11.40;99.90;;;;;;4916615;29;20248;-59
2021/07/10 02:44:12;;;;;;;5.47;4.97;;;11.40;99.90;;;;;;4916089;29;20201;-59
2021/07/10 02:46:38;;;;;;;8.90;5.07;;;11.40;99.90;;;;;;4916298;29;20207;-61
2021/07/10 02:49:04;;;;;;;4.60;4.30;;;11.40;99.90;;;;;;4916939;29;20173;-60
2021/07/10 02:51:29;;;;;;;4.07;3.77;;;11.40;99.90;;;;;;4916957;29;20770;-59
2021/07/10 02:53:56;;;;;;;4.77;4.43;;;11.40;99.90;;;;;;4916451;29;20493;-60
2021/07/10 02:56:22;;;;;;;5.27;4.77;;;11.40;99.90;;;;;;4916571;29;20197;-59
2021/07/10 02:58:48;;;;;;;5.60;4.60;;;11.50;99.90;;;;;;4916387;29;20409;-61
2021/07/10 03:01:14;;;;;;;5.53;5.07;;;11.50;99.90;;;;;;4916437;29;20940;-61
2021/07/10 03:03:40;;;;;;;7.00;6.27;;;11.50;99.90;;;;;;4915815;29;20436;-61
2021/07/10 03:06:05;;;;;;;5.30;4.90;;;11.50;99.90;;;;;;4916160;29;20169;-61
2021/07/10 03:08:31;;;;;;;5.60;5.10;;;11.50;99.90;;;;;;4915545;29;20180;-61
2021/07/10 03:10:57;;;;;;;6.60;5.90;;;11.50;99.90;;;;;;4916153;29;20181;-60
2021/07/10 03:13:22;;;;;;;6.00;5.50;;;11.50;99.90;;;;;;4915137;29;20193;-61
2021/07/10 03:15:48;;;;;;;5.60;5.17;;;11.60;99.90;;;;;;4915400;29;20204;-61
2021/07/10 03:18:14;;;;;;;5.97;5.47;;;11.60;99.90;;;;;;4916005;29;20179;-61
2021/07/10 03:20:39;;;;;;;7.77;7.07;;;11.70;99.90;;;;;;4915557;29;20409;-60
2021/07/10 03:23:05;;;;;;;6.83;5.50;;;11.70;99.90;;;;;;4915147;29;20216;-61
2021/07/10 03:25:31;;;;;;;5.90;5.50;;;11.70;99.90;;;;;;4915903;29;20235;-61
2021/07/10 03:27:57;;;;;;;6.10;5.60;;;11.70;99.90;;;;;;4915652;29;20649;-60
2021/07/10 03:30:24;;;;;;;6.40;5.80;;;11.80;99.90;;;;;;4915529;29;20192;-61
2021/07/10 03:32:51;;;;;;;7.23;6.13;;;11.80;99.90;;;;;;4915124;29;20855;-60
2021/07/10 03:35:18;;;;;;;5.57;5.10;;;11.80;99.90;;;;;;4915128;29;20467;-61
2021/07/10 03:37:46;;;;;;;7.10;6.50;;;11.90;99.90;;;;;;4914957;29;20412;-59
2021/07/10 03:40:14;;;;;;;6.57;5.93;;;11.80;99.90;;;;;;4915884;29;20504;-61
2021/07/10 03:42:41;;;;;;;8.73;6.83;;;11.90;99.90;;;;;;4915389;29;20413;-61
2021/07/10 03:45:09;;;;;;;6.80;6.30;;;11.90;99.90;;;;;;4915360;29;20436;-61
2021/07/10 03:47:35;;;;;;;6.23;5.73;;;12.00;99.90;;;;;;4915390;29;20424;-61
2021/07/10 03:50:01;;;;;;;7.20;6.60;;;11.90;99.90;;;;;;4915386;29;20425;-61
2021/07/10 03:52:27;;;;;;;6.40;5.73;;;12.00;99.90;;;;;;4914807;29;20195;-61
2021/07/10 03:54:52;;;;;;;7.30;6.60;;;12.00;99.90;;;;;;4915084;29;20965;-61
2021/07/10 03:57:18;;;;;;;7.10;6.40;;;12.00;99.90;;;;;;4915286;29;20252;-61
2021/07/10 03:59:43;;;;;;;6.93;6.33;;;12.10;99.90;;;;;;4915007;29;20183;-61
2021/07/10 04:02:09;;;;;;;6.43;5.93;;;12.10;99.90;;;;;;4915292;29;20192;-59
2021/07/10 04:04:34;;;;;;;6.40;5.90;;;12.20;99.90;;;;;;4914839;29;20202;-61
2021/07/10 04:07:00;;;;;;;6.73;6.13;;;12.20;99.90;;;;;;4914969;29;20173;-61
2021/07/10 04:09:26;;;;;;;6.83;6.30;;;12.20;99.90;;;;;;4915258;29;20177;-61
2021/07/10 04:11:51;;;;;;;7.30;6.70;;;12.20;99.90;;;;;;4915214;29;20410;-63
2021/07/10 04:14:17;;;;;;;6.90;6.40;;;12.30;99.90;;;;;;4914846;28;20215;-63
2021/07/10 04:16:43;;;;;;;7.20;6.63;;;12.30;99.90;;;;;;4915285;29;20168;-63
2021/07/10 04:19:08;;;;;;;6.47;5.97;;;12.40;99.90;;;;;;4914728;29;20197;-61
2021/07/10 04:21:34;;;;;;;7.17;6.47;;;12.40;99.90;;;;;;4914909;29;20676;-62
2021/07/10 04:23:59;;;;;;;7.23;6.60;;;12.40;99.90;;;;;;4914542;29;20587;-63
2021/07/10 04:26:25;;;;;;;7.17;6.53;;;12.40;99.90;;;;;;4914939;29;20183;-63
2021/07/10 04:28:51;;;;;;;7.00;6.50;;;12.50;99.90;;;;;;4915224;28;20649;-63
2021/07/10 04:31:16;;;;;;;7.20;6.50;;;12.40;99.90;;;;;;4914880;29;20440;-63
2021/07/10 04:33:42;;;;;;;6.03;5.50;;;12.50;99.90;;;;;;4914210;29;20189;-63
2021/07/10 04:36:07;;;;;;;6.67;6.17;;;12.60;99.90;;;;;;4915021;29;20187;-63
2021/07/10 04:38:37;;;;;;;6.93;6.30;;;12.60;99.90;;;;;;4914585;29;20173;-63
2021/07/10 04:41:04;;;;;;;7.37;6.77;;;12.70;99.90;;;;;;4914837;29;20264;-63
2021/07/10 04:43:29;;;;;;;7.90;6.10;;;12.70;99.90;;;;;;4914518;29;20433;-63
2021/07/10 04:45:56;;;;;;;8.33;7.60;;;12.80;99.90;;;;;;4914498;29;20781;-61
2021/07/10 04:48:22;;;;;;;7.00;6.40;;;12.90;99.90;;;;;;4914893;29;20558;-61
2021/07/10 04:50:47;;;;;;;6.80;6.27;;;12.90;99.90;;;;;;4917712;29;20405;-62
2021/07/10 04:53:13;;;;;;;6.47;5.97;;;13.00;99.90;;;;;;4917258;29;20192;-61
2021/07/10 04:55:39;;;;;;;8.47;6.73;;;13.10;99.90;;;;;;4917721;29;20236;-61
2021/07/10 04:58:04;;;;;;;8.43;7.63;;;13.10;99.90;;;;;;4917856;29;20169;-61
2021/07/10 05:00:30;;;;;;;9.60;7.43;;;13.20;99.90;;;;;;4917575;29;20545;-61
2021/07/10 05:02:55;;;;;;;7.80;7.00;;;13.30;99.90;;;;;;4917192;29;20188;-61
2021/07/10 05:05:21;;;;;;;7.60;7.00;;;13.40;99.90;;;;;;4917430;29;20184;-61
2021/07/10 05:07:47;;;;;;;7.67;6.83;;;13.50;99.90;;;;;;4917566;29;20169;-59
2021/07/10 05:10:13;;;;;;;7.80;7.10;;;13.60;99.90;;;;;;4917489;29;20180;-61
2021/07/10 05:12:39;;;;;;;8.20;7.40;;;13.60;99.90;;;;;;4917124;29;20172;-61
2021/07/10 05:15:05;;;;;;;7.73;7.13;;;13.70;99.90;;;;;;4917408;29;20479;-61
2021/07/10 05:17:31;;;;;;;10.13;7.70;;;13.80;99.90;;;;;;4917521;29;20439;-61
2021/07/10 05:19:56;;;;;;;8.70;8.00;;;13.90;99.90;;;;;;4917285;29;20499;-61
2021/07/10 05:22:22;;;;;;;9.07;8.17;;;13.90;99.90;;;;;;4916929;29;20165;-61
2021/07/10 05:24:47;;;;;;;10.10;7.90;;;14.00;99.90;;;;;;4917498;29;20633;-61
2021/07/10 05:27:13;;;;;;;7.97;7.17;;;14.00;99.90;;;;;;4917652;29;20188;-61
2021/07/10 05:29:39;;;;;;;8.17;7.47;;;14.10;99.90;;;;;;4917804;29;20204;-61
2021/07/10 05:32:05;;;;;;;8.27;7.47;;;14.20;99.90;;;;;;4917974;29;20420;-62
2021/07/10 05:34:31;;;;;;;8.83;8.03;;;14.30;99.90;;;;;;4917055;29;20213;-61
2021/07/10 05:36:56;;;;;;;9.40;8.60;;;14.30;99.90;;;;;;4917686;29;20227;-61
2021/07/10 05:39:22;;;;;;;10.10;9.30;;;14.40;99.90;;;;;;4917893;29;20181;-61
2021/07/10 05:41:48;;;;;;;8.33;7.27;;;14.50;99.90;;;;;;4918246;29;20188;-62
2021/07/10 05:44:13;;;;;;;10.03;8.90;;;14.60;99.90;;;;;;4917395;29;20188;-61
2021/07/10 05:46:39;;;;;;;8.87;8.10;;;14.70;99.90;;;;;;4917864;29;20307;-61
2021/07/10 05:49:05;;;;;;;8.80;8.10;;;14.70;99.90;;;;;;4917642;29;20251;-61
2021/07/10 05:51:30;;;;;;;14.70;9.27;;;14.80;99.90;;;;;;4917889;29;20180;-61
2021/07/10 05:53:56;;;;;;;8.13;7.23;;;14.90;99.90;;;;;;4917541;29;20463;-62
2021/07/10 05:56:22;;;;;;;9.27;8.30;;;15.00;99.90;;;;;;4917786;29;20223;-61
2021/07/10 05:58:47;;;;;;;8.30;7.60;;;15.10;99.90;;;;;;4918397;29;20176;-61
2021/07/10 06:01:14;;;;;;;8.00;7.30;;;15.10;99.90;;;;;;4917862;29;20172;-62
2021/07/10 06:03:39;;;;;;;7.80;7.10;;;15.20;99.90;;;;;;4917402;29;20665;-62
2021/07/10 06:06:05;;;;;;;9.23;8.43;;;15.30;99.90;;;;;;4917732;29;20435;-61
2021/07/10 06:08:31;;;;;;;8.63;7.93;;;15.40;99.90;;;;;;4918220;29;20177;-61
2021/07/10 06:10:56;;;;;;;9.80;9.00;;;15.50;99.90;;;;;;4918561;29;20532;-62
2021/07/10 06:13:22;;;;;;;9.57;8.77;;;15.60;99.90;;;;;;4917146;29;20200;-61
2021/07/10 06:15:48;;;;;;;8.17;7.50;;;15.70;99.90;;;;;;4917849;29;20201;-62
2021/07/10 06:18:14;;;;;;;8.17;7.57;;;15.80;99.90;;;;;;4917324;29;20433;-61
2021/07/10 06:20:39;;;;;;;9.70;8.80;;;15.90;99.90;;;;;;4917447;29;20660;-62
2021/07/10 06:23:06;;;;;;;9.00;8.20;;;16.10;99.90;;;;;;4916596;29;20219;-62
2021/07/10 06:25:33;;;;;;;7.50;6.90;;;16.20;99.90;;;;;;4917367;29;20177;-61
2021/07/10 06:27:59;;;;;;;7.60;6.90;;;16.30;99.90;;;;;;4917388;29;20417;-61
2021/07/10 06:30:25;;;;;;;8.80;8.10;;;16.40;99.90;;;;;;4916938;29;20423;-62
2021/07/10 06:32:51;;;;;;;8.87;7.40;;;16.50;99.90;;;;;;4916113;29;20433;-62
2021/07/10 06:35:17;;;;;;;7.73;7.13;;;16.70;99.90;;;;;;4916054;29;20209;-61
2021/07/10 06:37:43;;;;;;;7.73;7.13;;;16.70;99.90;;;;;;4915679;29;20207;-62
2021/07/10 06:40:13;;;;;;;7.37;6.67;;;16.90;99.90;;;;;;4915427;29;20441;-62
2021/07/10 06:42:39;;;;;;;6.70;6.00;;;17.00;99.90;;;;;;4915369;29;20589;-62
2021/07/10 06:45:10;;;;;;;6.37;5.87;;;17.10;99.90;;;;;;4915490;29;20421;-62
2021/07/10 06:47:36;;;;;;;6.63;5.93;;;17.20;99.90;;;;;;4915734;29;20491;-62
2021/07/10 06:50:05;;;;;;;6.60;5.90;;;17.30;99.90;;;;;;4915583;29;20933;-62
2021/07/10 06:52:32;;;;;;;7.27;5.83;;;17.40;99.90;;;;;;4915045;29;20165;-62
2021/07/10 06:54:57;;;;;;;5.63;5.10;;;17.50;99.90;;;;;;4915377;28;20559;-62
2021/07/10 06:57:23;;;;;;;6.80;6.20;;;17.60;99.90;;;;;;4915643;29;20503;-62
2021/07/10 06:59:48;;;;;;;6.50;5.90;;;17.60;99.90;;;;;;4915356;29;20172;-62
2021/07/10 07:02:14;;;;;;;6.50;5.90;;;17.70;99.90;;;;;;4915394;29;20172;-62
2021/07/10 07:04:39;;;;;;;6.40;5.80;;;17.80;99.90;;;;;;4914922;29;20260;-62
2021/07/10 07:07:06;;;;;;;6.00;5.53;;;17.90;99.90;;;;;;4915630;29;20569;-62
2021/07/10 07:09:31;;;;;;;5.13;4.70;;;18.00;99.90;;;;;;4915544;29;20173;-62
2021/07/10 07:11:57;;;;;;;6.07;5.50;;;18.00;99.90;;;;;;4914743;29;20416;-62
2021/07/10 07:14:23;;;;;;;5.80;5.30;;;18.10;99.90;;;;;;4914796;29;20201;-62
2021/07/10 07:16:49;;;;;;;8.00;5.43;;;18.20;99.90;;;;;;4915849;29;20416;-62
2021/07/10 07:19:15;;;;;;;5.03;4.63;;;18.40;99.90;;;;;;4915349;29;20176;-62
2021/07/10 07:21:40;;;;;;;5.60;5.13;;;18.50;99.90;;;;;;4915294;29;20664;-63
2021/07/10 07:24:06;;;;;;;7.23;5.10;;;18.50;99.90;;;;;;4914641;29;20228;-62
2021/07/10 07:26:32;;;;;;;7.23;5.83;;;18.60;99.90;;;;;;4915741;29;20180;-62
2021/07/10 07:28:58;;;;;;;5.17;4.77;;;18.60;99.90;;;;;;4916017;29;20416;-61
2021/07/10 07:31:23;;;;;;;5.20;4.77;;;18.60;99.90;;;;;;4916717;29;20495;-62
2021/07/10 07:33:49;;;;;;;4.77;4.47;;;18.70;99.90;;;;;;4917142;29;20220;-62
2021/07/10 07:36:15;;;;;;;5.50;5.07;;;18.80;99.90;;;;;;4916967;29;20179;-62
2021/07/10 07:38:40;;;;;;;7.50;5.00;;;18.90;99.90;;;;;;4917332;29;20180;-63
2021/07/10 07:41:07;;;;;;;4.83;4.43;;;18.90;99.90;;;;;;4914978;29;20199;-62
2021/07/10 07:43:32;;;;;;;4.40;4.10;;;19.00;99.90;;;;;;4913189;29;20616;-62
2021/07/10 07:45:59;;;;;;;4.80;4.40;;;19.00;99.90;;;;;;4913599;29;20503;-62
2021/07/10 07:48:24;;;;;;;4.20;4.00;;;19.10;99.90;;;;;;4912263;29;20187;-62
2021/07/10 07:50:50;;;;;;;4.43;4.03;;;19.20;99.90;;;;;;4912525;29;20520;-62
2021/07/10 07:53:18;;;;;;;4.10;3.80;;;19.20;99.90;;;;;;4913748;29;20283;-62
2021/07/10 07:55:44;;;;;;;4.00;3.70;;;19.20;99.90;;;;;;4913891;29;20545;-62
2021/07/10 07:58:10;;;;;;;5.47;4.53;;;19.40;99.90;;;;;;4913775;29;20492;-62
2021/07/10 08:00:36;;;;;;;4.97;4.60;;;19.40;99.90;;;;;;4913951;29;20469;-62
2021/07/10 08:03:01;;;;;;;4.40;4.10;;;19.40;99.90;;;;;;4913025;29;20384;-62
2021/07/10 08:05:27;;;;;;;4.83;4.40;;;19.50;99.90;;;;;;4913389;29;20238;-62
2021/07/10 08:07:53;;;;;;;5.67;5.10;;;19.60;99.90;;;;;;4913411;29;20172;-62
2021/07/10 08:10:18;;;;;;;4.83;4.23;;;19.70;99.90;;;;;;4913288;29;20188;-62
2021/07/10 08:12:49;;;;;;;5.10;4.60;;;19.80;99.90;;;;;;4912726;29;20168;-62
2021/07/10 08:15:17;;;;;;;5.07;4.70;;;19.80;99.90;;;;;;4913347;29;20208;-62
2021/07/10 08:17:44;;;;;;;4.00;3.60;;;19.80;99.80;;;;;;4913174;29;20417;-62
2021/07/10 08:20:10;;;;;;;4.43;3.90;;;19.80;99.90;;;;;;4913192;29;20771;-62
2021/07/10 08:22:36;;;;;;;5.40;3.77;;;19.80;99.50;;;;;;4912366;29;20424;-62
2021/07/10 08:25:03;;;;;;;4.20;3.80;;;19.70;99.60;;;;;;4912391;29;20419;-62
2021/07/10 08:27:28;;;;;;;4.10;3.80;;;19.70;99.40;;;;;;4906730;29;20183;-62
2021/07/10 08:29:54;;;;;;;3.30;3.00;;;19.70;99.90;;;;;;4893793;29;20505;-62
2021/07/10 08:32:19;;;;;;;4.13;3.73;;;19.80;99.70;;;;;;4893670;29;20174;-62
2021/07/10 08:34:45;;;;;;;3.90;3.40;;;19.90;99.90;;;;;;4903905;29;20216;-62
2021/07/10 08:37:11;;;;;;;4.40;4.00;;;20.10;99.90;;;;;;4913011;29;20188;-62
2021/07/10 08:39:36;;;;;;;5.03;4.63;;;20.10;99.30;;;;;;4912926;29;20192;-62
2021/07/10 08:42:02;;;;;;;4.77;4.37;;;20.20;99.30;;;;;;4912627;29;20594;-62
2021/07/10 08:44:32;;;;;;;3.43;3.23;;;20.20;99.40;;;;;;4912755;28;20193;-62
2021/07/10 08:46:59;;;;;;;4.40;4.10;;;20.40;98.50;;;;;;4912899;29;20259;-62
2021/07/10 08:49:25;;;;;;;4.60;3.60;;;20.50;99.80;;;;;;4912814;29;20507;-62
2021/07/10 08:51:51;;;;;;;4.20;3.90;;;20.50;99.20;;;;;;4912811;29;20431;-62
2021/07/10 08:54:17;;;;;;;3.70;3.50;;;20.60;99.70;;;;;;4911511;29;20459;-62
2021/07/10 08:56:43;;;;;;;4.57;4.23;;;20.70;99.60;;;;;;4911331;29;20732;-62
2021/07/10 08:59:10;;;;;;;3.90;3.60;;;20.70;99.20;;;;;;4912765;29;20177;-62
2021/07/10 09:01:36;;;;;;;4.00;3.73;;;20.80;99.90;;;;;;4912542;28;20456;-62
2021/07/10 09:04:02;;;;;;;4.60;4.20;;;20.90;99.60;;;;;;4912362;29;20864;-62
2021/07/10 09:06:27;;;;;;;4.23;3.83;;;21.10;99.40;;;;;;4912662;29;20279;-62
2021/07/10 09:08:57;;;;;;;3.73;3.53;;;21.10;98.70;;;;;;4912622;29;20543;-63
2021/07/10 09:11:24;;;;;;;3.40;3.20;;;21.20;98.80;;;;;;4912820;29;20180;-62
2021/07/10 09:13:53;;;;;;;3.70;3.43;;;21.30;97.60;;;;;;4912088;29;20431;-62
2021/07/10 09:16:21;;;;;;;3.90;3.60;;;21.40;97.90;;;;;;4912718;28;20413;-62
2021/07/10 09:18:59;;;;;;;4.87;4.10;;;21.60;97.90;;;;;;4912469;29;20428;-62
2021/07/10 09:21:46;;;;;;;3.50;3.30;;;21.60;97.70;;;;;;4912454;29;20474;-63
2021/07/10 09:24:49;;;;;;;3.97;3.67;;;21.60;97.00;;;;;;4912055;29;20472;-62
2021/07/10 09:27:15;;;;;;;4.17;3.87;;;21.60;97.20;;;;;;4970293;28;20449;-62
2021/07/10 09:29:47;;;;;;;3.77;3.37;;;21.50;95.60;;;;;;4923421;28;20941;-62
2021/07/10 09:32:18;;;;;;;4.00;3.67;;;21.50;96.50;;;;;;4912338;29;20416;-63
2021/07/10 09:34:49;;;;;;;4.33;4.00;;;21.70;97.00;;;;;;4912912;29;20473;-62
2021/07/10 09:37:16;;;;;;;3.87;3.60;;;21.70;96.20;;;;;;4915644;29;20409;-63
2021/07/10 09:39:45;;;;;;;4.27;3.97;;;21.90;96.70;;;;;;4915515;29;20921;-62
2021/07/10 09:42:15;;;;;;;4.60;4.20;;;22.00;97.30;;;;;;4915427;29;20453;-63
2021/07/10 09:44:52;;;;;;;3.47;3.27;;;22.00;95.50;;;;;;4915085;29;20485;-63
2021/07/10 09:47:25;;;;;;;6.20;3.77;;;22.10;96.00;;;;;;4915604;29;20413;-63
2021/07/10 09:49:51;;;;;;;3.77;3.57;;;22.10;93.80;;;;;;4915428;29;20437;-63
2021/07/10 09:52:19;;;;;;;4.73;3.57;;;22.10;93.50;;;;;;4915126;29;20447;-63
2021/07/10 09:54:46;;;;;;;4.20;3.80;;;22.10;94.10;;;;;;4913899;29;20981;-63
2021/07/10 09:57:26;;;;;;;4.50;4.20;;;21.90;93.30;;;;;;4915053;29;20413;-63
2021/07/10 09:59:59;;;;;;;4.30;4.00;;;21.80;94.60;;;;;;4915267;29;20405;-62
2021/07/10 10:02:28;;;;;;;3.87;3.53;;;21.80;95.20;;;;;;4915201;29;20401;-63
2021/07/10 10:05:06;;;;;;;10.53;3.80;;;21.60;94.00;;;;;;4913218;29;20416;-63
2021/07/10 10:07:52;;;;;;;4.57;4.27;;;21.60;95.60;;;;;;4913966;29;20424;-62
2021/07/10 10:10:31;;;;;;;4.17;3.80;;;21.70;97.30;;;;;;4915080;29;20428;-62
2021/07/10 10:13:08;;;;;;;4.63;4.23;;;21.50;97.10;;;;;;4914745;29;20519;-63
2021/07/10 10:15:46;;;;;;;4.13;3.83;;;21.50;97.50;;;;;;4914895;29;20455;-63
2021/07/10 10:18:18;;;;;;;4.20;3.80;;;21.50;96.80;;;;;;4915039;29;20539;-63
2021/07/10 10:20:45;;;;;;;4.33;4.03;;;21.40;96.80;;;;;;4914940;29;20405;-63
2021/07/10 10:23:11;;;;;;;3.87;3.60;;;21.50;97.50;;;;;;4914575;29;20527;-63
2021/07/10 10:25:37;;;;;;;4.07;3.60;;;21.60;97.00;;;;;;4914906;29;20417;-63
2021/07/10 10:28:05;;;;;;;3.90;3.60;;;21.80;97.50;;;;;;4914712;29;20996;-63
2021/07/10 10:30:31;;;;;;;6.20;3.90;;;21.90;95.40;;;;;;4914770;29;20898;-63
2021/07/10 10:32:57;;;;;;;4.47;4.07;;;22.00;96.50;;;;;;4914514;29;20439;-63
2021/07/10 10:35:23;;;;;;;3.90;3.60;;;22.00;94.70;;;;;;4914663;29;20496;-63
2021/07/10 10:37:49;;;;;;;4.00;3.77;;;22.10;95.30;;;;;;4914726;29;20452;-63
2021/07/10 10:40:20;;;;;;;4.70;4.30;;;22.30;93.80;;;;;;4914614;29;20168;-63
2021/07/10 10:42:56;;;;;;;5.20;4.80;;;22.50;93.40;;;;;;4914590;29;20188;-69
2021/07/10 10:45:29;;;;;;;4.03;3.73;;;22.80;95.10;;;;;;4914560;29;20831;-63
2021/07/10 10:47:55;;;;;;;3.90;3.60;;;23.50;94.70;;;;;;4913560;29;20421;-63
2021/07/10 10:50:29;;;;;;;3.53;3.20;;;24.30;94.10;;;;;;4914536;29;20543;-63
2021/07/10 10:52:57;;;;;;;4.07;3.73;;;24.70;93.40;;;;;;4914100;29;20203;-63
2021/07/10 10:55:28;;;;;;;4.60;4.20;;;24.80;91.20;;;;;;4914292;29;20460;-63
2021/07/10 10:57:58;;;;;;;3.90;3.40;;;24.90;91.60;;;;;;4914339;29;20405;-63
2021/07/10 11:00:23;;;;;;;4.00;3.60;;;24.90;90.90;;;;;;4914340;29;20474;-63
2021/07/10 11:02:49;;;;;;;4.33;3.67;;;24.70;92.00;;;;;;4913928;29;20429;-63
2021/07/10 11:05:35;;;;;;;3.87;3.50;;;24.60;91.50;;;;;;4914250;29;20176;-63
2021/07/10 11:08:21;;;;;;;4.20;3.90;;;24.40;91.50;;;;;;4923984;28;20185;-63
2021/07/10 11:11:01;;;;;;;3.70;3.47;;;24.50;92.00;;;;;;4914211;29;20977;-63
2021/07/10 11:13:33;;;;;;;7.07;4.43;;;24.60;91.50;;;;;;4913673;29;20939;-63
2021/07/10 11:16:14;;;;;;;4.53;4.13;;;24.80;91.00;;;;;;4914080;29;20461;-63
2021/07/10 11:19:05;;;;;;;3.43;3.20;;;25.00;91.10;;;;;;4914421;28;20487;-63
2021/07/10 11:21:41;;;;;;;3.73;3.43;;;25.00;90.50;;;;;;4914063;29;20484;-63
2021/07/10 11:24:19;;;;;;;4.00;3.70;;;24.80;89.70;;;;;;4913467;29;20483;-63
2021/07/10 11:26:54;;;;;;;3.80;3.50;;;24.70;90.20;;;;;;4913931;29;20440;-63
2021/07/10 11:29:22;;;;;;;3.37;3.07;;;24.50;88.00;;;;;;4914052;29;20819;-63
2021/07/10 11:31:51;;;;;;;4.10;3.80;;;24.40;87.90;;;;;;4913858;29;20448;-63
2021/07/10 11:34:18;;;;;;;6.70;3.80;;;24.60;87.70;;;;;;4913273;29;20496;-63
2021/07/10 11:36:52;;;;;;;3.37;3.03;;;24.70;90.00;;;;;;4913811;29;20409;-63
2021/07/10 11:39:23;;;;;;;4.17;3.77;;;24.60;86.30;;;;;;4913722;29;20401;-63
2021/07/10 11:42:30;;;;;;;3.40;3.20;;;24.70;86.40;;;;;;4913605;29;20763;-63
2021/07/10 11:45:04;;;;;;;4.03;3.73;;;24.60;87.20;;;;;;4913682;29;20814;-63
2021/07/10 11:47:58;;;;;;;3.17;3.00;;;24.60;87.10;;;;;;4912587;29;20463;-63
2021/07/10 11:50:28;;;;;;;3.97;3.60;;;24.70;85.50;;;;;;4914532;29;20432;-63
2021/07/10 11:53:05;;;;;;;4.20;3.83;;;24.80;88.50;;;;;;4912310;29;20445;-63
2021/07/10 11:55:34;;;;;;;4.50;4.20;;;24.80;88.90;;;;;;4913472;29;20456;-63
2021/07/10 11:58:06;;;;;;;3.70;3.40;;;24.80;89.70;;;;;;4912980;29;20444;-63
2021/07/10 12:00:32;;;;;;;3.87;3.67;;;24.70;87.20;;;;;;4913659;29;20486;-63
2021/07/10 12:02:57;;;;;;;3.50;3.30;;;24.70;89.30;;;;;;4912993;29;20505;-63
2021/07/10 12:05:24;;;;;;;3.73;3.20;;;24.40;87.30;;;;;;4912265;29;20805;-63
2021/07/10 12:07:58;;;;;;;3.43;3.23;;;24.40;90.30;;;;;;4911849;29;20181;-63
2021/07/10 12:10:25;;;;;;;4.13;3.80;;;24.40;89.60;;;;;;4912115;29;20444;-63
2021/07/10 12:13:01;;;;;;;3.83;3.63;;;24.20;90.70;;;;;;4912928;29;20428;-63
2021/07/10 12:15:39;;;;;;;3.93;3.70;;;24.20;90.70;;;;;;4913208;29;20888;-63
2021/07/10 12:18:06;;;;;;;3.87;3.67;;;24.10;91.10;;;;;;4913315;29;20408;-63
2021/07/10 12:20:36;;;;;;;3.93;3.63;;;24.00;91.30;;;;;;4913151;29;20405;-63
2021/07/10 12:23:32;;;;;;;4.37;3.97;;;24.00;91.60;;;;;;4912668;29;20451;-63
2021/07/10 12:26:01;;;;;;;4.20;3.80;;;24.00;90.70;;;;;;4901127;29;20417;-63
2021/07/10 12:28:39;;;;;;;4.77;4.10;;;23.80;91.10;;;;;;4913156;29;20492;-63
2021/07/10 12:31:15;;;;;;;4.70;4.30;;;23.70;91.10;;;;;;4913080;29;20496;-63
2021/07/10 12:33:53;;;;;;;4.00;3.70;;;23.60;91.40;;;;;;4912972;29;20424;-63
2021/07/10 12:36:25;;;;;;;4.13;3.83;;;23.50;92.10;;;;;;4913143;29;20408;-63
2021/07/10 12:39:02;;;;;;;4.93;4.50;;;23.50;91.80;;;;;;4912929;29;20980;-63
2021/07/10 12:41:34;;;;;;;4.37;4.07;;;23.50;91.60;;;;;;4912924;29;21027;-63
2021/07/10 12:44:17;;;;;;;6.37;4.30;;;23.60;92.20;;;;;;4912502;29;20416;-63
2021/07/10 12:46:56;;;;;;;4.33;4.03;;;24.20;93.80;;;;;;4912864;29;20843;-63
2021/07/10 12:49:24;;;;;;;4.30;3.90;;;25.20;92.20;;;;;;4912877;29;21108;-63